createdAt,value
2019-03-30T00:00:35.235Z,101388.73
2019-03-30T00:05:38.933Z,101383.27
2019-03-30T00:10:44.204Z,101378.02
2019-03-30T00:15:47.811Z,101377.23
2019-03-30T00:20:51.535Z,101380.81
2019-03-30T00:25:55.193Z,101374.59
2019-03-30T00:30:58.923Z,101377.79
2019-03-30T00:36:02.554Z,101370.28
2019-03-30T00:41:06.333Z,101371.59
2019-03-30T00:46:09.981Z,101377.33
2019-03-30T00:51:13.913Z,101372.33
2019-03-30T00:56:17.530Z,101377.09
2019-03-30T01:01:21.454Z,101377.18
2019-03-30T01:06:25.092Z,101368.97
2019-03-30T01:11:28.774Z,101365.58
2019-03-30T01:16:32.382Z,101360.66
2019-03-30T01:21:36.081Z,101358.15
2019-03-30T01:26:39.693Z,101349.70
2019-03-30T01:31:43.672Z,101353.83
2019-03-30T01:36:47.411Z,101351.09
2019-03-30T01:41:51.146Z,101349.27
2019-03-30T01:46:54.854Z,101339.80
2019-03-30T01:51:58.592Z,101330.57
2019-03-30T01:57:02.413Z,101334.64
2019-03-30T02:02:06.131Z,101338.68
2019-03-30T02:07:10.691Z,101341.86
2019-03-30T02:12:14.423Z,101343.17
2019-03-30T02:17:20.164Z,101334.74
2019-03-30T02:22:23.587Z,101334.27
2019-03-30T02:27:27.332Z,101334.17
2019-03-30T02:32:31.121Z,101329.53
2019-03-30T02:37:34.777Z,101329.75
2019-03-30T02:42:38.416Z,101325.88
2019-03-30T02:47:42.178Z,101318.53
2019-03-30T02:52:45.854Z,101325.05
2019-03-30T02:57:49.530Z,101321.78
2019-03-30T03:02:53.247Z,101317.62
2019-03-30T03:07:56.931Z,101307.40
2019-03-30T03:13:00.593Z,101293.45
2019-03-30T03:18:05.210Z,101293.50
2019-03-30T03:23:08.874Z,101292.39
2019-03-30T03:28:12.521Z,101279.53
2019-03-30T03:33:16.189Z,101274.84
2019-03-30T03:38:19.823Z,101266.83
2019-03-30T03:43:23.494Z,101261.81
2019-03-30T03:48:27.109Z,101267.05
2019-03-30T03:53:31.163Z,101262.25
2019-03-30T03:58:35.253Z,101259.69
2019-03-30T04:03:39.021Z,101256.61
2019-03-30T04:08:44.315Z,101258.38
2019-03-30T04:13:48.002Z,101269.96
2019-03-30T04:18:51.654Z,101265.53
2019-03-30T04:23:55.299Z,101256.63
2019-03-30T04:28:59.057Z,101256.60
2019-03-30T04:34:02.813Z,101253.87
2019-03-30T04:39:06.629Z,101250.99
2019-03-30T04:44:10.362Z,101254.10
2019-03-30T04:49:14.178Z,101253.88
2019-03-30T04:54:17.905Z,101243.23
2019-03-30T04:59:21.841Z,101247.89
2019-03-30T05:04:25.652Z,101236.64
2019-03-30T05:09:29.257Z,101241.97
2019-03-30T05:14:33.189Z,101236.09
2019-03-30T05:19:36.911Z,101242.73
2019-03-30T05:24:40.645Z,101235.28
2019-03-30T05:29:44.347Z,101237.48
2019-03-30T05:34:48.063Z,101234.44
2019-03-30T05:39:51.782Z,101247.87
2019-03-30T05:44:57.766Z,101248.59
2019-03-30T05:50:01.182Z,101254.00
2019-03-30T05:55:05.613Z,101259.28
2019-03-30T06:00:09.976Z,101245.01
2019-03-30T06:05:13.987Z,101254.67
2019-03-30T06:10:17.905Z,101249.26
2019-03-30T06:15:21.627Z,101254.66
2019-03-30T06:20:25.368Z,101252.89
2019-03-30T06:25:31.535Z,101250.70
2019-03-30T06:30:35.676Z,101228.96
2019-03-30T06:35:39.615Z,101243.56
2019-03-30T06:40:43.593Z,101237.34
2019-03-30T06:45:47.310Z,101236.98
2019-03-30T06:50:51.061Z,101232.05
2019-03-30T06:55:54.683Z,101230.28
2019-03-30T07:00:58.402Z,101235.56
2019-03-30T07:06:02.127Z,101216.45
2019-03-30T07:11:20.182Z,101222.22
2019-03-30T07:16:11.741Z,101215.05
2019-03-30T07:21:15.665Z,101223.45
2019-03-30T07:26:19.546Z,101223.45
2019-03-30T07:31:23.302Z,101219.40
2019-03-30T07:36:27.013Z,101215.68
2019-03-30T07:41:30.837Z,101208.23
2019-03-30T07:46:34.575Z,101207.28
2019-03-30T07:51:38.284Z,101207.25
2019-03-30T07:56:42.009Z,101211.62
2019-03-30T08:01:45.749Z,101205.44
2019-03-30T08:06:49.455Z,101208.52
2019-03-30T08:11:53.287Z,101201.89
2019-03-30T08:16:56.998Z,101196.53
2019-03-30T08:22:00.731Z,101186.35
2019-03-30T08:27:05.680Z,101183.23
2019-03-30T08:32:09.387Z,101180.62
2019-03-30T08:37:13.971Z,101175.75
2019-03-30T08:42:17.752Z,101165.52
2019-03-30T08:47:21.487Z,101164.21
2019-03-30T08:52:25.404Z,101167.75
2019-03-30T08:57:29.134Z,101153.50
2019-03-30T09:02:32.845Z,101149.48
2019-03-30T09:07:36.570Z,101145.48
2019-03-30T09:12:40.408Z,101138.36
2019-03-30T09:17:44.102Z,101136.13
2019-03-30T09:22:47.851Z,101134.80
2019-03-30T09:27:51.669Z,101126.41
2019-03-30T09:32:55.378Z,101123.80
2019-03-30T09:37:59.245Z,101122.02
2019-03-30T09:43:02.922Z,101116.71
2019-03-30T09:48:19.716Z,101120.28
2019-03-30T09:53:23.389Z,101114.10
2019-03-30T09:58:27.094Z,101102.56
2019-03-30T10:03:31.019Z,101105.64
2019-03-30T10:08:34.741Z,101096.78
2019-03-30T10:13:38.476Z,101094.46
2019-03-30T10:18:42.198Z,101084.22
2019-03-30T10:23:45.900Z,101084.27
2019-03-30T10:28:49.631Z,101072.06
2019-03-30T10:33:53.476Z,101067.13
2019-03-30T10:38:57.184Z,101061.41
2019-03-30T10:44:00.905Z,101060.56
2019-03-30T10:49:05.140Z,101031.73
2019-03-30T10:54:08.877Z,101044.22
2019-03-30T10:59:12.600Z,101042.04
2019-03-30T11:04:16.309Z,101030.09
2019-03-30T11:09:20.135Z,101031.02
2019-03-30T11:14:23.738Z,101022.60
2019-03-30T11:19:27.476Z,101012.89
2019-03-30T11:24:31.169Z,101008.90
2019-03-30T11:29:34.904Z,101009.37
2019-03-30T11:34:38.657Z,101001.40
2019-03-30T11:39:42.339Z,100997.54
2019-03-30T11:44:46.063Z,100995.38
2019-03-30T11:49:49.796Z,100983.22
2019-03-30T11:54:53.515Z,100982.09
2019-03-30T11:59:57.236Z,100976.16
2019-03-30T12:05:00.958Z,100952.07
2019-03-30T12:10:06.627Z,100953.40
2019-03-30T12:15:10.343Z,100945.09
2019-03-30T12:20:13.996Z,100922.85
2019-03-30T12:25:17.670Z,100925.14
2019-03-30T12:30:21.405Z,100907.75
2019-03-30T12:35:25.358Z,100899.80
2019-03-30T12:40:28.963Z,100891.16
2019-03-30T12:45:32.627Z,100888.11
2019-03-30T12:50:36.280Z,100881.06
2019-03-30T12:55:49.178Z,100865.94
2019-03-30T13:00:45.475Z,100867.84
2019-03-30T13:05:49.101Z,100851.84
2019-03-30T13:10:52.839Z,100849.25
2019-03-30T13:15:56.530Z,100834.58
2019-03-30T13:21:00.368Z,100832.43
2019-03-30T13:26:04.912Z,100820.06
2019-03-30T13:31:08.629Z,100820.45
2019-03-30T13:36:12.771Z,100815.02
2019-03-30T13:41:16.407Z,100800.53
2019-03-30T13:46:20.040Z,100801.43
2019-03-30T13:51:23.733Z,100797.50
2019-03-30T13:56:27.377Z,100785.11
2019-03-30T14:01:31.009Z,100784.73
2019-03-30T14:06:34.679Z,100778.94
2019-03-30T14:11:38.318Z,100777.00
2019-03-30T14:16:41.998Z,100768.08
2019-03-30T14:21:45.602Z,100758.02
2019-03-30T14:26:49.249Z,100754.09
2019-03-30T14:31:52.858Z,100749.22
2019-03-30T14:36:56.404Z,100743.94
2019-03-30T14:42:00.005Z,100736.83
2019-03-30T14:47:03.564Z,100728.80
2019-03-30T14:52:07.157Z,100720.17
2019-03-30T14:57:10.702Z,100717.76
2019-03-30T15:02:14.247Z,100710.39
2019-03-30T15:07:17.824Z,100698.13
2019-03-30T15:12:21.376Z,100683.83
2019-03-30T15:17:24.952Z,100665.94
2019-03-30T15:22:28.505Z,100662.30
2019-03-30T15:27:32.087Z,100658.33
2019-03-30T15:32:35.614Z,100658.81
2019-03-30T15:37:39.188Z,100653.09
2019-03-30T15:42:42.765Z,100645.12
2019-03-30T15:47:46.313Z,100641.20
2019-03-30T15:52:49.895Z,100632.80
2019-03-30T15:57:53.568Z,100631.44
2019-03-30T16:02:57.188Z,100618.29
2019-03-30T16:08:00.804Z,100612.78
2019-03-30T16:13:04.835Z,100610.53
2019-03-30T16:18:08.442Z,100595.06
2019-03-30T16:23:11.978Z,100596.07
2019-03-30T16:28:15.592Z,100595.25
2019-03-30T16:33:19.154Z,100594.02
2019-03-30T16:38:22.769Z,100590.58
2019-03-30T16:43:26.322Z,100586.22
2019-03-30T16:48:29.912Z,100576.08
2019-03-30T16:53:33.477Z,100572.90
2019-03-30T16:58:37.053Z,100572.25
2019-03-30T17:03:40.614Z,100575.06
2019-03-30T17:08:44.193Z,100570.73
2019-03-30T17:13:47.763Z,100576.84
2019-03-30T17:18:51.333Z,100584.31
2019-03-30T17:23:54.905Z,100581.19
2019-03-30T17:28:58.829Z,100578.33
2019-03-30T17:34:02.355Z,100576.88
2019-03-30T17:39:08.257Z,100583.58
2019-03-30T17:44:11.790Z,100582.84
2019-03-30T17:49:15.736Z,100580.36
2019-03-30T17:54:19.377Z,100578.19
2019-03-30T17:59:23.885Z,100591.81
2019-03-30T18:04:27.739Z,100591.94
2019-03-30T18:09:31.361Z,100591.94
2019-03-30T18:14:34.980Z,100602.78
2019-03-30T18:19:38.600Z,100604.86
2019-03-30T18:24:42.361Z,100605.05
2019-03-30T18:29:46.039Z,100605.18
2019-03-30T18:34:49.617Z,100606.27
2019-03-30T18:39:53.296Z,100610.33
2019-03-30T18:44:56.902Z,100609.47
2019-03-30T18:50:00.519Z,100607.95
2019-03-30T18:55:06.526Z,100599.45
2019-03-30T19:00:10.236Z,100594.39
2019-03-30T19:05:13.759Z,100587.13
2019-03-30T19:10:17.347Z,100583.98
2019-03-30T19:15:20.967Z,100581.89
2019-03-30T19:20:24.598Z,100584.34
2019-03-30T19:25:29.880Z,100582.78
2019-03-30T19:30:33.670Z,100581.75
2019-03-30T19:35:37.194Z,100580.70
2019-03-30T19:40:40.814Z,100573.83
2019-03-30T19:45:44.434Z,100583.03
2019-03-30T19:50:48.043Z,100578.84
2019-03-30T19:55:51.666Z,100576.28
2019-03-30T20:00:55.290Z,100573.87
2019-03-30T20:05:58.908Z,100588.80
2019-03-30T20:11:02.523Z,100590.11
2019-03-30T20:16:06.095Z,100593.86
2019-03-30T20:21:09.658Z,100594.43
2019-03-30T20:26:13.235Z,100599.48
2019-03-30T20:31:16.948Z,100602.69
2019-03-30T20:36:20.735Z,100598.78
2019-03-30T20:41:24.343Z,100598.86
2019-03-30T20:46:28.288Z,100598.86
2019-03-30T20:51:31.819Z,100598.47
2019-03-30T20:56:35.405Z,100589.64
2019-03-30T21:01:38.955Z,100591.38
2019-03-30T21:06:42.546Z,100589.75
2019-03-30T21:11:46.164Z,100583.32
2019-03-30T21:16:49.788Z,100578.78
2019-03-30T21:21:53.398Z,100571.69
2019-03-30T21:26:56.977Z,100568.75
2019-03-30T21:32:00.540Z,100567.95
2019-03-30T21:37:05.183Z,100568.11
2019-03-30T21:42:08.715Z,100564.25
2019-03-30T21:47:12.324Z,100565.38
2019-03-30T21:52:15.938Z,100561.72
2019-03-30T21:57:19.560Z,100567.39
2019-03-30T22:02:23.171Z,100574.69
2019-03-30T22:07:26.750Z,100573.05
2019-03-30T22:12:30.418Z,100573.50
2019-03-30T22:17:33.964Z,100561.56
2019-03-30T22:22:37.659Z,100561.56
2019-03-30T22:27:41.293Z,100561.97
2019-03-30T22:32:44.889Z,100555.86
2019-03-30T22:37:48.934Z,100556.57
2019-03-30T22:42:52.645Z,100553.63
2019-03-30T22:47:56.266Z,100547.99
2019-03-30T22:52:59.880Z,100550.36
2019-03-30T22:58:03.504Z,100542.70
2019-03-30T23:03:07.428Z,100540.64
2019-03-30T23:08:11.046Z,100543.77
2019-03-30T23:13:14.670Z,100540.77
2019-03-30T23:18:18.284Z,100547.39
2019-03-30T23:23:21.904Z,100538.23
2019-03-30T23:28:25.528Z,100534.33
2019-03-30T23:33:29.057Z,100534.33
2019-03-30T23:38:32.602Z,100533.31
2019-03-30T23:43:36.288Z,100538.48
2019-03-30T23:48:39.918Z,100529.79
2019-03-30T23:53:43.501Z,100527.91
2019-03-30T23:58:47.242Z,100529.17
